LFFR weather

Bar Sur Seine Airfield
Champagne-Ardenne, France

Public forecast

Using degrees Celsius for public forecast. Weather courtesy of forecast.io.

METAR (pilot weather report)

Closest report is Troyes-Barberey Airport, 22.1 nm (40.9 km) NW. Retrieved 2019/09/23 18:30 UTC (8 minutes ago):

LFQB 231830Z AUTO 19004KT CAVOK 12/09 Q1017

TAF (pilot weather forecast)

Closest forecast is Saint-Dizier-Robinson (BA 113) Air Base, 39.3 nm (72.8 km) NNE. Retrieved 2019/09/23 15:21 UTC (3 hours ago):

TAF LFSI 231400Z 2315/2415 23007KT 9999 FEW030 SCT050